createdAt,value
2023-02-28T00:01:57.062Z,13.97
2023-02-28T00:04:24.043Z,13.95
2023-02-28T00:06:52.153Z,13.96
2023-02-28T00:09:22.265Z,14.03
2023-02-28T00:11:50.301Z,14.03
2023-02-28T00:14:17.997Z,14.02
2023-02-28T00:16:45.412Z,13.92
2023-02-28T00:19:12.847Z,13.88
2023-02-28T00:21:41.319Z,13.93
2023-02-28T00:24:09.127Z,13.95
2023-02-28T00:26:38.743Z,13.96
2023-02-28T00:29:06.939Z,13.98
2023-02-28T00:31:34.439Z,13.94
2023-02-28T00:34:01.739Z,13.99
2023-02-28T00:36:29.924Z,13.86
2023-02-28T00:38:57.576Z,13.74
2023-02-28T00:41:25.245Z,13.68
2023-02-28T00:43:54.511Z,13.75
2023-02-28T00:46:21.822Z,13.87
2023-02-28T00:48:49.507Z,13.89
2023-02-28T00:51:18.277Z,13.83
2023-02-28T00:53:45.751Z,13.83
2023-02-28T00:56:13.049Z,13.85
2023-02-28T00:58:40.411Z,13.82
2023-02-28T01:01:09.741Z,13.85
2023-02-28T01:03:37.817Z,13.77
2023-02-28T01:06:06.256Z,13.77
2023-02-28T01:08:33.632Z,13.77
2023-02-28T01:11:09.548Z,13.77
2023-02-28T01:13:36.882Z,13.70
2023-02-28T01:16:04.112Z,13.67
2023-02-28T01:18:33.786Z,13.69
2023-02-28T01:21:05.687Z,13.64
2023-02-28T01:23:33.549Z,13.65
2023-02-28T01:26:05.604Z,13.56
2023-02-28T01:28:33.233Z,13.58
2023-02-28T01:31:00.659Z,13.57
2023-02-28T01:33:28.506Z,13.54
2023-02-28T01:36:02.103Z,13.59
2023-02-28T01:38:30.229Z,13.54
2023-02-28T01:40:58.364Z,13.51
2023-02-28T01:43:28.068Z,13.53
2023-02-28T01:45:57.969Z,13.53
2023-02-28T01:48:29.920Z,13.58
2023-02-28T01:51:03.070Z,13.56
2023-02-28T01:53:35.947Z,13.56
2023-02-28T01:56:07.366Z,13.57
2023-02-28T01:58:35.807Z,13.53
2023-02-28T02:01:03.522Z,13.40
2023-02-28T02:03:32.175Z,13.42
2023-02-28T02:06:01.927Z,13.47
2023-02-28T02:08:31.311Z,13.45
2023-02-28T02:11:01.815Z,13.48
2023-02-28T02:13:50.714Z,13.47
2023-02-28T02:16:35.890Z,13.48
2023-02-28T02:19:22.502Z,13.44
2023-02-28T02:22:23.249Z,13.53
2023-02-28T02:25:27.814Z,13.66
2023-02-28T02:28:37.717Z,13.75
2023-02-28T02:31:30.391Z,13.73
2023-02-28T02:34:51.369Z,13.85
2023-02-28T02:37:28.989Z,13.81
2023-02-28T02:40:05.859Z,13.87
2023-02-28T02:42:41.806Z,13.92
2023-02-28T02:45:14.106Z,13.88
2023-02-28T02:47:45.070Z,13.88
2023-02-28T02:50:20.975Z,13.87
2023-02-28T02:52:52.902Z,13.90
2023-02-28T02:55:23.739Z,13.86
2023-02-28T02:57:55.814Z,13.89
2023-02-28T03:00:31.250Z,13.88
2023-02-28T03:02:59.391Z,13.79
2023-02-28T03:05:36.300Z,13.82
2023-02-28T03:08:06.492Z,13.93
2023-02-28T03:10:39.902Z,13.92
2023-02-28T03:13:28.374Z,13.98
2023-02-28T03:16:15.566Z,14.04
2023-02-28T03:18:52.103Z,14.02
2023-02-28T03:21:28.848Z,14.05
2023-02-28T03:24:05.892Z,14.11
2023-02-28T03:26:38.452Z,14.22
2023-02-28T03:29:13.327Z,14.22
2023-02-28T03:31:44.742Z,14.26
2023-02-28T03:34:17.801Z,14.13
2023-02-28T03:36:51.532Z,14.12
2023-02-28T03:39:24.025Z,14.10
2023-02-28T03:41:58.169Z,14.17
2023-02-28T03:44:31.438Z,14.18
2023-02-28T03:47:04.285Z,14.19
2023-02-28T03:49:38.056Z,14.22
2023-02-28T03:52:12.115Z,14.09
2023-02-28T03:54:45.188Z,14.16
2023-02-28T03:57:22.015Z,14.05
2023-02-28T03:59:56.039Z,14.03
2023-02-28T04:02:23.740Z,14.11
2023-02-28T04:04:51.178Z,14.07
2023-02-28T04:07:21.141Z,13.94
2023-02-28T04:09:48.672Z,13.84
2023-02-28T04:12:16.798Z,13.75
2023-02-28T04:14:46.176Z,13.55
2023-02-28T04:17:14.239Z,13.68
2023-02-28T04:19:41.811Z,13.38
2023-02-28T04:22:10.746Z,13.45
2023-02-28T04:24:40.165Z,13.42
2023-02-28T04:27:08.168Z,13.46
2023-02-28T04:29:36.537Z,13.59
2023-02-28T04:32:04.899Z,13.61
2023-02-28T04:34:33.680Z,13.54
2023-02-28T04:37:12.928Z,13.60
2023-02-28T04:39:43.527Z,13.48
2023-02-28T04:42:11.870Z,13.25
2023-02-28T04:44:39.474Z,13.43
2023-02-28T04:47:06.662Z,13.56
2023-02-28T04:49:34.044Z,13.47
2023-02-28T04:52:01.433Z,13.57
2023-02-28T04:54:28.883Z,13.51
2023-02-28T04:56:57.830Z,13.40
2023-02-28T04:59:26.807Z,13.10
2023-02-28T05:01:55.990Z,12.96
2023-02-28T05:04:23.494Z,13.18
2023-02-28T05:06:50.835Z,13.11
2023-02-28T05:09:18.460Z,13.19
2023-02-28T05:11:46.861Z,13.26
2023-02-28T05:14:19.576Z,13.28
2023-02-28T05:16:47.904Z,13.27
2023-02-28T05:19:15.977Z,13.31
2023-02-28T05:21:52.866Z,13.30
2023-02-28T05:24:21.814Z,13.31
2023-02-28T05:26:50.479Z,13.34
2023-02-28T05:29:19.520Z,13.34
2023-02-28T05:31:47.304Z,13.39
2023-02-28T05:34:15.277Z,13.45
2023-02-28T05:36:43.552Z,13.40
2023-02-28T05:39:10.908Z,13.48
2023-02-28T05:41:38.420Z,13.33
2023-02-28T05:44:06.777Z,13.26
2023-02-28T05:46:37.032Z,13.27
2023-02-28T05:49:05.076Z,13.25
2023-02-28T05:51:32.816Z,13.30
2023-02-28T05:54:01.973Z,13.36
2023-02-28T05:56:29.590Z,13.28
2023-02-28T05:58:57.171Z,13.31
2023-02-28T06:01:34.255Z,13.32
2023-02-28T06:04:04.584Z,13.35
2023-02-28T06:06:32.078Z,13.26
2023-02-28T06:09:01.305Z,13.65
2023-02-28T06:11:29.560Z,13.48
2023-02-28T06:13:59.722Z,13.33
2023-02-28T06:16:28.340Z,13.50
2023-02-28T06:18:56.444Z,13.34
2023-02-28T06:21:25.871Z,13.28
2023-02-28T06:23:53.601Z,13.25
2023-02-28T06:26:20.770Z,13.29
2023-02-28T06:28:48.777Z,13.26
2023-02-28T06:31:18.393Z,13.21
2023-02-28T06:33:47.152Z,13.26
2023-02-28T06:36:16.318Z,13.26
2023-02-28T06:38:47.167Z,13.32
2023-02-28T06:41:14.545Z,13.26
2023-02-28T06:43:43.885Z,13.11
2023-02-28T06:46:14.443Z,13.11
2023-02-28T06:48:42.934Z,13.13
2023-02-28T06:51:13.152Z,13.11
2023-02-28T06:53:41.001Z,13.04
2023-02-28T06:56:12.448Z,13.13
2023-02-28T06:58:40.188Z,13.16
2023-02-28T07:01:08.918Z,13.12
2023-02-28T07:03:37.362Z,13.13
2023-02-28T07:06:06.253Z,13.09
2023-02-28T07:08:34.125Z,13.13
2023-02-28T07:11:02.021Z,13.13
2023-02-28T07:13:31.966Z,13.18
2023-02-28T07:16:02.825Z,13.12
2023-02-28T07:18:30.967Z,13.07
2023-02-28T07:20:58.746Z,13.11
2023-02-28T07:23:26.584Z,13.24
2023-02-28T07:25:53.487Z,13.28
2023-02-28T07:28:20.994Z,13.30
2023-02-28T07:30:50.290Z,13.27
2023-02-28T07:33:17.606Z,13.32
2023-02-28T07:35:45.743Z,13.36
2023-02-28T07:38:17.766Z,13.31
2023-02-28T07:40:44.752Z,13.43
2023-02-28T07:43:12.289Z,13.46
2023-02-28T07:45:40.213Z,13.39
2023-02-28T07:48:09.875Z,13.45
2023-02-28T07:50:36.768Z,13.52
2023-02-28T07:53:04.567Z,13.54
2023-02-28T07:55:33.027Z,13.59
2023-02-28T07:58:01.155Z,13.61
2023-02-28T08:00:28.977Z,13.53
2023-02-28T08:02:56.642Z,13.46
2023-02-28T08:05:26.149Z,13.46
2023-02-28T08:07:53.736Z,13.40
2023-02-28T08:10:21.810Z,13.43
2023-02-28T08:12:49.682Z,13.43
2023-02-28T08:15:18.326Z,13.35
2023-02-28T08:17:45.491Z,13.40
2023-02-28T08:20:14.119Z,13.50
2023-02-28T08:22:45.835Z,13.56
2023-02-28T08:25:13.473Z,13.62
2023-02-28T08:27:40.863Z,13.39
2023-02-28T08:30:11.320Z,13.47
2023-02-28T08:32:39.048Z,13.25
2023-02-28T08:35:08.266Z,13.37
2023-02-28T08:37:36.264Z,13.39
2023-02-28T08:40:08.185Z,13.28
2023-02-28T08:42:35.739Z,13.13
2023-02-28T08:45:04.481Z,13.29
2023-02-28T08:47:31.480Z,13.46
2023-02-28T08:49:59.200Z,13.73
2023-02-28T08:52:27.184Z,13.92
2023-02-28T08:54:54.448Z,14.02
2023-02-28T08:57:23.284Z,14.23
2023-02-28T08:59:51.860Z,14.34
2023-02-28T09:02:20.080Z,14.02
2023-02-28T09:04:47.869Z,14.18
2023-02-28T09:07:15.510Z,14.12
2023-02-28T09:09:42.951Z,14.20
2023-02-28T09:12:10.573Z,14.17
2023-02-28T09:14:40.527Z,14.15
2023-02-28T09:17:07.919Z,14.21
2023-02-28T09:19:35.451Z,14.29
2023-02-28T09:22:04.083Z,14.50
2023-02-28T09:24:32.240Z,14.86
2023-02-28T09:27:05.065Z,14.50
2023-02-28T09:29:34.065Z,14.42
2023-02-28T09:32:04.062Z,14.75
2023-02-28T09:34:31.523Z,14.63
2023-02-28T09:37:00.076Z,14.63
2023-02-28T09:39:28.639Z,14.70
2023-02-28T09:41:57.405Z,14.90
2023-02-28T09:44:32.742Z,14.85
2023-02-28T09:47:08.980Z,14.70
2023-02-28T09:49:42.774Z,14.65
2023-02-28T09:52:15.765Z,14.95
2023-02-28T09:54:43.391Z,15.12
2023-02-28T09:57:19.494Z,15.22
2023-02-28T10:00:01.206Z,15.19
2023-02-28T10:03:12.791Z,15.35
2023-02-28T10:05:49.631Z,16.26
2023-02-28T10:08:22.807Z,15.95
2023-02-28T10:10:57.570Z,15.98
2023-02-28T10:13:28.725Z,15.89
2023-02-28T10:16:03.092Z,15.60
2023-02-28T10:18:39.878Z,15.15
2023-02-28T10:21:20.142Z,15.40
2023-02-28T10:23:49.962Z,15.27
2023-02-28T10:26:19.172Z,15.53
2023-02-28T10:28:47.494Z,15.98
2023-02-28T10:31:21.077Z,16.26
2023-02-28T10:33:50.323Z,16.29
2023-02-28T10:36:21.360Z,15.91
2023-02-28T10:38:50.651Z,16.18
2023-02-28T10:41:30.049Z,16.46
2023-02-28T10:44:19.947Z,16.55
2023-02-28T10:46:50.065Z,15.32
2023-02-28T10:49:23.958Z,15.81
2023-02-28T10:51:57.621Z,16.14
2023-02-28T10:54:29.449Z,15.91
2023-02-28T10:57:16.426Z,15.82
2023-02-28T10:59:44.745Z,16.52
2023-02-28T11:05:01.810Z,16.96
2023-02-28T11:07:41.499Z,17.60
2023-02-28T11:10:24.623Z,17.51
2023-02-28T11:12:57.276Z,18.14
2023-02-28T11:15:27.993Z,17.72
2023-02-28T11:17:58.218Z,17.71
2023-02-28T11:20:29.351Z,17.07
2023-02-28T11:23:00.486Z,16.76
2023-02-28T11:25:31.381Z,16.33
2023-02-28T11:28:00.005Z,16.22
2023-02-28T11:30:34.999Z,16.23
2023-02-28T11:33:20.839Z,15.93
2023-02-28T11:35:51.444Z,16.17
2023-02-28T11:38:21.426Z,15.76
2023-02-28T11:41:03.903Z,16.05
2023-02-28T11:44:00.530Z,16.69
2023-02-28T11:46:37.662Z,17.11
2023-02-28T11:49:23.348Z,16.96
2023-02-28T11:51:58.256Z,17.23
2023-02-28T11:54:44.687Z,16.83
2023-02-28T11:57:34.901Z,16.68
2023-02-28T12:00:10.599Z,16.60
2023-02-28T12:03:00.733Z,16.58
2023-02-28T12:05:34.699Z,16.70
2023-02-28T12:08:17.710Z,16.91
2023-02-28T12:10:56.147Z,16.34
2023-02-28T12:13:27.852Z,16.02
2023-02-28T12:16:22.556Z,16.39
2023-02-28T12:19:01.488Z,16.26
2023-02-28T12:21:39.602Z,16.19
2023-02-28T12:24:38.249Z,16.63
2023-02-28T12:27:12.259Z,16.55
2023-02-28T12:29:49.198Z,16.69
2023-02-28T12:32:23.229Z,16.65
2023-02-28T12:34:56.403Z,16.71
2023-02-28T12:37:33.288Z,16.72
2023-02-28T12:40:11.605Z,16.66
2023-02-28T12:42:47.620Z,16.91
2023-02-28T12:45:21.569Z,16.84
2023-02-28T12:47:56.612Z,16.96
2023-02-28T12:50:25.779Z,16.92
2023-02-28T12:53:02.646Z,16.89
2023-02-28T12:55:38.562Z,16.88
2023-02-28T12:58:15.829Z,17.17
2023-02-28T13:00:59.957Z,17.00
2023-02-28T13:03:56.924Z,16.52
2023-02-28T13:06:58.758Z,16.66
2023-02-28T13:09:27.355Z,16.54
2023-02-28T13:11:57.575Z,16.48
2023-02-28T13:14:31.094Z,16.65
2023-02-28T13:17:05.647Z,16.56
2023-02-28T13:19:36.853Z,16.81
2023-02-28T13:22:05.145Z,17.42
2023-02-28T13:24:43.284Z,17.88
2023-02-28T13:27:37.620Z,17.76
2023-02-28T13:30:38.632Z,17.78
2023-02-28T13:33:29.979Z,17.63
2023-02-28T13:36:24.225Z,17.86
2023-02-28T13:38:54.141Z,17.55
2023-02-28T13:41:47.215Z,17.14
2023-02-28T13:44:17.091Z,17.03
2023-02-28T13:47:24.524Z,16.32
2023-02-28T13:49:55.027Z,16.55
2023-02-28T13:52:26.083Z,15.85
2023-02-28T13:55:03.273Z,16.00
2023-02-28T13:57:44.308Z,16.27
2023-02-28T14:00:29.347Z,16.47
2023-02-28T14:03:20.419Z,16.60
2023-02-28T14:06:11.460Z,16.42
2023-02-28T14:08:46.650Z,16.58
2023-02-28T14:11:31.069Z,16.52
2023-02-28T14:13:59.161Z,16.31
2023-02-28T14:16:29.177Z,15.95
2023-02-28T14:19:01.933Z,15.42
2023-02-28T14:21:34.002Z,15.70
2023-02-28T14:24:39.433Z,15.93
2023-02-28T14:27:34.528Z,15.97
2023-02-28T14:30:26.972Z,15.79
2023-02-28T14:33:09.576Z,15.78
2023-02-28T14:35:56.186Z,15.71
2023-02-28T14:38:28.906Z,15.84
2023-02-28T14:41:00.730Z,15.97
2023-02-28T14:43:30.636Z,16.39
2023-02-28T14:46:00.947Z,16.37
2023-02-28T14:48:29.696Z,16.30
2023-02-28T14:51:00.618Z,15.61
2023-02-28T14:53:36.703Z,15.70
2023-02-28T14:56:04.684Z,14.85
2023-02-28T14:58:35.410Z,15.33
2023-02-28T15:01:05.198Z,15.74
2023-02-28T15:03:36.925Z,15.21
2023-02-28T15:06:06.235Z,15.15
2023-02-28T15:08:35.955Z,15.70
2023-02-28T15:11:06.839Z,15.31
2023-02-28T15:13:38.892Z,15.63
2023-02-28T15:16:11.996Z,15.54
2023-02-28T15:18:48.038Z,15.13
2023-02-28T15:21:19.172Z,15.57
2023-02-28T15:23:53.470Z,15.94
2023-02-28T15:26:23.764Z,15.65
2023-02-28T15:28:57.980Z,15.80
2023-02-28T15:31:36.146Z,15.43
2023-02-28T15:34:17.121Z,15.63
2023-02-28T15:36:44.579Z,15.85
2023-02-28T15:39:23.829Z,15.58
2023-02-28T15:41:51.952Z,15.72
2023-02-28T15:44:26.757Z,16.04
2023-02-28T15:47:01.513Z,15.60
2023-02-28T15:49:31.939Z,15.62
2023-02-28T15:52:00.855Z,15.38
2023-02-28T15:54:33.513Z,15.29
2023-02-28T15:57:05.750Z,15.34
2023-02-28T15:59:33.319Z,15.76
2023-02-28T16:02:15.762Z,15.64
2023-02-28T16:05:01.916Z,15.49
2023-02-28T16:07:30.259Z,15.46
2023-02-28T16:09:58.986Z,15.74
2023-02-28T16:12:31.596Z,15.50
2023-02-28T16:15:00.921Z,15.27
2023-02-28T16:17:31.986Z,15.45
2023-02-28T16:19:59.160Z,15.71
2023-02-28T16:22:26.114Z,15.44
2023-02-28T16:24:53.305Z,15.68
2023-02-28T16:27:26.284Z,15.84
2023-02-28T16:29:54.741Z,15.68
2023-02-28T16:32:21.703Z,15.73
2023-02-28T16:34:48.918Z,15.84
2023-02-28T16:37:17.857Z,15.84
2023-02-28T16:39:46.336Z,15.54
2023-02-28T16:42:26.626Z,15.65
2023-02-28T16:44:57.506Z,15.88
2023-02-28T16:47:26.728Z,15.69
2023-02-28T16:49:54.083Z,15.66
2023-02-28T16:52:21.083Z,15.70
2023-02-28T16:54:48.241Z,15.31
2023-02-28T16:57:21.480Z,15.32
2023-02-28T16:59:48.753Z,15.17
2023-02-28T17:02:19.137Z,15.20
2023-02-28T17:04:46.501Z,15.05
2023-02-28T17:07:16.185Z,14.84
2023-02-28T17:09:45.500Z,14.86
2023-02-28T17:12:12.874Z,15.02
2023-02-28T17:14:40.032Z,14.97
2023-02-28T17:17:07.407Z,14.98
2023-02-28T17:19:35.860Z,14.99
2023-02-28T17:22:02.903Z,14.96
2023-02-28T17:24:31.253Z,15.17
2023-02-28T17:26:58.747Z,15.19
2023-02-28T17:29:25.891Z,14.46
2023-02-28T17:31:52.949Z,14.96
2023-02-28T17:34:20.416Z,14.55
2023-02-28T17:36:50.335Z,14.86
2023-02-28T17:39:18.645Z,14.94
2023-02-28T17:41:45.480Z,14.80
2023-02-28T17:44:12.683Z,14.67
2023-02-28T17:46:40.583Z,15.05
2023-02-28T17:49:07.940Z,14.83
2023-02-28T17:51:34.801Z,14.98
2023-02-28T17:54:03.769Z,14.74
2023-02-28T17:56:31.403Z,14.96
2023-02-28T17:59:01.696Z,14.99
2023-02-28T18:01:28.850Z,14.98
2023-02-28T18:03:57.071Z,14.93
2023-02-28T18:06:26.337Z,14.73
2023-02-28T18:08:53.736Z,14.63
2023-02-28T18:11:24.489Z,14.62
2023-02-28T18:13:53.180Z,14.61
2023-02-28T18:16:22.144Z,14.82
2023-02-28T18:18:51.004Z,14.60
2023-02-28T18:21:18.573Z,14.48
2023-02-28T18:23:45.660Z,14.32
2023-02-28T18:26:12.631Z,14.23
2023-02-28T18:28:41.011Z,14.61
2023-02-28T18:31:08.952Z,14.71
2023-02-28T18:33:36.102Z,14.50
2023-02-28T18:36:05.942Z,14.30
2023-02-28T18:38:33.113Z,14.29
2023-02-28T18:41:02.570Z,14.05
2023-02-28T18:43:31.322Z,14.77
2023-02-28T18:46:04.493Z,14.97
2023-02-28T18:48:31.640Z,14.99
2023-02-28T18:50:58.483Z,14.81
2023-02-28T18:53:26.154Z,14.31
2023-02-28T18:55:52.957Z,14.47
2023-02-28T18:58:19.781Z,14.72
2023-02-28T19:00:48.034Z,14.49
2023-02-28T19:03:16.182Z,14.24
2023-02-28T19:05:43.219Z,14.18
2023-02-28T19:08:10.626Z,13.97
2023-02-28T19:10:39.320Z,14.27
2023-02-28T19:13:06.378Z,14.41
2023-02-28T19:15:33.591Z,14.80
2023-02-28T19:18:00.735Z,14.34
2023-02-28T19:20:29.031Z,13.62
2023-02-28T19:22:56.233Z,13.81
2023-02-28T19:25:23.605Z,13.99
2023-02-28T19:27:52.709Z,14.24
2023-02-28T19:30:19.772Z,14.47
2023-02-28T19:32:47.189Z,14.72
2023-02-28T19:35:14.564Z,14.85
2023-02-28T19:37:43.347Z,14.62
2023-02-28T19:40:12.151Z,14.07
2023-02-28T19:42:38.944Z,14.08
2023-02-28T19:45:06.552Z,14.21
2023-02-28T19:47:33.386Z,13.94
2023-02-28T19:50:00.240Z,14.25
2023-02-28T19:52:27.215Z,13.84
2023-02-28T19:54:56.020Z,14.25
2023-02-28T19:57:23.499Z,14.32
2023-02-28T19:59:51.222Z,13.93
2023-02-28T20:02:21.474Z,14.00
2023-02-28T20:04:49.937Z,14.16
2023-02-28T20:07:20.657Z,14.18
2023-02-28T20:09:48.201Z,14.21
2023-02-28T20:12:24.145Z,14.40
2023-02-28T20:14:52.118Z,13.84
2023-02-28T20:17:19.407Z,14.28
2023-02-28T20:19:46.504Z,13.81
2023-02-28T20:22:13.331Z,14.20
2023-02-28T20:24:40.693Z,13.95
2023-02-28T20:27:07.729Z,14.16
2023-02-28T20:29:36.342Z,14.12
2023-02-28T20:32:03.154Z,14.18
2023-02-28T20:34:29.995Z,14.28
2023-02-28T20:36:56.935Z,14.25
2023-02-28T20:39:25.120Z,14.19
2023-02-28T20:41:52.066Z,14.00
2023-02-28T20:44:19.030Z,14.17
2023-02-28T20:46:47.355Z,13.66
2023-02-28T20:49:14.023Z,13.98
2023-02-28T20:51:40.780Z,14.03
2023-02-28T20:54:08.135Z,13.75
2023-02-28T20:56:35.217Z,13.95
2023-02-28T20:59:02.050Z,13.95
2023-02-28T21:01:30.038Z,14.08
2023-02-28T21:04:00.045Z,14.13
2023-02-28T21:06:29.342Z,14.27
2023-02-28T21:08:56.479Z,14.10
2023-02-28T21:11:25.330Z,13.94
2023-02-28T21:13:52.906Z,14.29
2023-02-28T21:16:25.947Z,14.29
2023-02-28T21:18:53.578Z,14.29
2023-02-28T21:21:24.360Z,13.91
2023-02-28T21:23:52.587Z,14.53
2023-02-28T21:26:22.016Z,14.30
2023-02-28T21:28:50.461Z,14.24
2023-02-28T21:31:18.555Z,14.36
2023-02-28T21:33:46.408Z,13.63
2023-02-28T21:36:15.862Z,13.63
2023-02-28T21:38:46.152Z,13.54
2023-02-28T21:41:15.720Z,13.24
2023-02-28T21:43:43.181Z,13.32
2023-02-28T21:46:12.704Z,13.61
2023-02-28T21:48:40.944Z,13.50
2023-02-28T21:51:10.892Z,13.40
2023-02-28T21:53:38.602Z,13.64
2023-02-28T21:56:11.613Z,13.67
2023-02-28T21:58:38.564Z,13.41
2023-02-28T22:01:06.720Z,13.49
2023-02-28T22:03:33.806Z,13.62
2023-02-28T22:06:01.342Z,13.47
2023-02-28T22:08:28.770Z,13.49
2023-02-28T22:10:55.585Z,13.71
2023-02-28T22:13:23.892Z,13.72
2023-02-28T22:15:50.586Z,13.76
2023-02-28T22:18:17.353Z,13.81
2023-02-28T22:20:44.160Z,13.85
2023-02-28T22:23:12.340Z,13.77
2023-02-28T22:25:39.616Z,13.84
2023-02-28T22:28:06.307Z,13.89
2023-02-28T22:30:34.688Z,13.96
2023-02-28T22:33:02.112Z,13.85
2023-02-28T22:35:29.043Z,13.83
2023-02-28T22:37:57.419Z,14.00
2023-02-28T22:40:25.572Z,14.05
2023-02-28T22:42:52.314Z,13.79
2023-02-28T22:45:19.076Z,13.59
2023-02-28T22:47:49.621Z,14.09
2023-02-28T22:50:16.805Z,13.98
2023-02-28T22:52:43.831Z,13.75
2023-02-28T22:55:11.445Z,13.83
2023-02-28T22:57:39.025Z,13.98
2023-02-28T23:00:09.213Z,14.10
2023-02-28T23:02:36.257Z,14.05
2023-02-28T23:05:04.970Z,13.60
2023-02-28T23:07:31.761Z,13.89
2023-02-28T23:09:58.664Z,14.03
2023-02-28T23:12:25.588Z,14.12
2023-02-28T23:14:53.208Z,14.21
2023-02-28T23:17:20.090Z,14.29
2023-02-28T23:19:47.011Z,14.26
2023-02-28T23:22:15.151Z,14.32
2023-02-28T23:24:41.963Z,14.18
2023-02-28T23:27:09.093Z,14.30
2023-02-28T23:29:36.634Z,14.23
2023-02-28T23:32:04.248Z,14.33
2023-02-28T23:34:31.453Z,14.48
2023-02-28T23:37:00.781Z,14.52
2023-02-28T23:39:30.718Z,14.51
2023-02-28T23:41:58.318Z,14.50
2023-02-28T23:44:25.424Z,14.29
2023-02-28T23:46:53.683Z,14.25
2023-02-28T23:49:21.785Z,14.35
2023-02-28T23:51:50.590Z,14.15
2023-02-28T23:54:18.986Z,14.21
2023-02-28T23:56:47.509Z,14.25
2023-02-28T23:59:14.417Z,14.37
